Time;durP1;ratioP1;P1;durP2;ratioP2;P2;SDS_P1;SDS_P2;PMS_P1;PMS_P2;Temp;Humidity;BMP_temperature;BMP_pressure;BME280_temperature;BME280_humidity;BME280_pressure;Samples;Min_cycle;Max_cycle;Signal;HPM_P1;HPM_P2
2023/08/04 00:00:07;;;;;;;2.30;1.30;;;;;;;14.98;100.00;97596.41;5053545;28;20211;-75
2023/08/04 00:02:34;;;;;;;1.97;1.13;;;;;;;14.98;100.00;97601.75;5053826;28;20224;-75
2023/08/04 00:05:01;;;;;;;2.27;1.10;;;;;;;14.97;100.00;97603.56;5054005;28;20875;-76
2023/08/04 00:07:27;;;;;;;1.37;0.90;;;;;;;14.69;100.00;97612.47;5054161;28;20212;-75
2023/08/04 00:09:55;;;;;;;2.40;1.10;;;;;;;14.48;100.00;97613.66;5053391;28;20215;-75
2023/08/04 00:12:22;;;;;;;1.87;1.20;;;;;;;14.27;100.00;97616.47;5053988;28;20204;-76
2023/08/04 00:14:48;;;;;;;1.77;1.03;;;;;;;14.13;100.00;97616.00;5053808;28;20235;-75
2023/08/04 00:17:15;;;;;;;2.33;0.93;;;;;;;14.06;100.00;97615.72;5053750;28;20208;-75
2023/08/04 00:19:45;;;;;;;2.60;1.10;;;;;;;14.01;100.00;97609.16;5052960;28;20303;-75
2023/08/04 00:22:12;;;;;;;1.73;1.23;;;;;;;14.04;100.00;97614.19;5053669;28;20322;-76
2023/08/04 00:24:38;;;;;;;1.47;1.10;;;;;;;14.03;100.00;97609.84;5053690;28;20224;-75
2023/08/04 00:27:06;;;;;;;1.50;1.00;;;;;;;13.99;100.00;97605.81;5053494;28;20212;-75
2023/08/04 00:29:33;;;;;;;1.80;1.30;;;;;;;14.01;100.00;97606.50;5052680;28;20212;-76
2023/08/04 00:31:59;;;;;;;2.20;1.20;;;;;;;13.97;100.00;97613.06;5053414;28;20208;-76
2023/08/04 00:34:26;;;;;;;3.77;1.20;;;;;;;13.99;100.00;97611.94;5053539;28;20227;-76
2023/08/04 00:36:52;;;;;;;2.40;1.10;;;;;;;13.95;100.00;97605.25;5052076;28;20212;-76
2023/08/04 00:39:19;;;;;;;1.30;1.20;;;;;;;13.93;100.00;97614.34;5052631;28;20677;-76
2023/08/04 00:41:45;;;;;;;2.63;1.40;;;;;;;13.92;100.00;97604.66;5053268;28;20302;-76
2023/08/04 00:44:13;;;;;;;2.17;1.50;;;;;;;13.91;100.00;97608.31;5053186;28;20208;-74
2023/08/04 00:46:40;;;;;;;1.90;1.57;;;;;;;13.88;100.00;97609.41;5053491;28;20236;-75
2023/08/04 00:49:08;;;;;;;2.20;1.40;;;;;;;13.83;100.00;97608.16;5053174;28;20222;-76
2023/08/04 00:51:35;;;;;;;1.90;1.63;;;;;;;13.82;100.00;97611.81;5053146;28;20223;-76
2023/08/04 00:54:02;;;;;;;1.53;1.30;;;;;;;13.81;100.00;97618.09;5053221;28;20562;-75
2023/08/04 00:56:30;;;;;;;4.07;1.50;;;;;;;13.81;100.00;97618.09;5067861;22;20239;-83
2023/08/04 00:58:56;;;;;;;2.37;1.50;;;;;;;13.80;100.00;97622.56;5052187;28;20204;-83
2023/08/04 01:01:24;;;;;;;2.33;1.60;;;;;;;13.79;100.00;97620.03;5052267;28;20208;-83
2023/08/04 01:03:52;;;;;;;2.00;1.20;;;;;;;13.76;100.00;97623.00;5052883;28;20228;-83
2023/08/04 01:06:26;;;;;;;3.70;1.50;;;;;;;13.72;100.00;97618.91;5053017;28;20242;-84
2023/08/04 01:09:01;;;;;;;2.67;1.47;;;;;;;13.66;100.00;97619.47;5052875;28;20214;-83
2023/08/04 01:11:40;;;;;;;2.10;1.60;;;;;;;13.64;100.00;97621.44;5052415;28;20200;-83
2023/08/04 01:14:07;;;;;;;2.90;1.80;;;;;;;13.67;100.00;97629.09;5053174;28;20212;-83
2023/08/04 01:16:35;;;;;;;2.73;1.80;;;;;;;13.76;100.00;97630.94;5052673;28;20234;-83
2023/08/04 01:19:02;;;;;;;1.80;1.50;;;;;;;13.88;100.00;97627.19;5052380;28;20221;-83
2023/08/04 01:21:39;;;;;;;2.83;1.30;;;;;;;13.97;100.00;97627.19;5052104;28;20223;-83
2023/08/04 01:24:06;;;;;;;3.37;1.70;;;;;;;14.04;100.00;97619.50;5052699;28;20232;-83
2023/08/04 01:26:34;;;;;;;1.43;1.33;;;;;;;14.16;100.00;97621.03;5052586;28;20228;-83
2023/08/04 01:29:02;;;;;;;3.97;1.47;;;;;;;14.20;100.00;97622.47;5051610;28;20678;-83
2023/08/04 01:31:29;;;;;;;2.20;1.40;;;;;;;14.21;100.00;97622.34;5051409;28;20597;-83
2023/08/04 01:33:55;;;;;;;1.70;1.30;;;;;;;14.14;100.00;97615.03;5052224;28;20208;-83
2023/08/04 01:36:22;;;;;;;2.77;1.50;;;;;;;14.04;100.00;97612.38;5052255;28;20228;-83
2023/08/04 01:38:49;;;;;;;2.13;1.30;;;;;;;13.97;100.00;97605.09;5052049;28;20705;-83
2023/08/04 01:41:16;;;;;;;1.70;1.60;;;;;;;13.87;100.00;97607.75;5051479;28;20204;-83
2023/08/04 01:43:42;;;;;;;3.77;1.73;;;;;;;13.84;100.00;97607.19;5052155;28;20233;-83
2023/08/04 01:46:09;;;;;;;2.30;1.47;;;;;;;13.79;100.00;97604.09;5051864;28;20259;-83
2023/08/04 01:48:35;;;;;;;2.40;1.80;;;;;;;13.78;100.00;97602.44;5051568;28;20215;-83
2023/08/04 01:51:02;;;;;;;2.97;1.70;;;;;;;13.72;100.00;97600.31;5051104;28;20217;-83
2023/08/04 01:53:28;;;;;;;2.60;1.73;;;;;;;13.74;100.00;97603.69;5052053;28;20208;-83
2023/08/04 01:55:56;;;;;;;2.03;1.70;;;;;;;13.76;100.00;97593.78;5051641;28;20240;-83
2023/08/04 01:58:22;;;;;;;2.37;1.77;;;;;;;13.81;100.00;97603.00;5051797;28;20211;-83
2023/08/04 02:00:49;;;;;;;3.40;2.00;;;;;;;13.89;100.00;97604.97;5050978;28;20215;-83
2023/08/04 02:03:15;;;;;;;4.60;2.07;;;;;;;14.00;100.00;97602.16;5051453;28;20228;-83
2023/08/04 02:05:46;;;;;;;2.53;2.03;;;;;;;14.08;100.00;97595.19;5051674;28;20243;-83
2023/08/04 02:08:12;;;;;;;3.93;2.10;;;;;;;14.15;100.00;97598.94;5051773;28;20223;-83
2023/08/04 02:10:39;;;;;;;2.17;1.70;;;;;;;14.23;100.00;97603.59;5050833;28;20208;-83
2023/08/04 02:13:06;;;;;;;3.27;1.90;;;;;;;14.27;100.00;97597.00;5051379;28;20204;-83
2023/08/04 02:15:33;;;;;;;3.67;2.10;;;;;;;14.34;100.00;97595.44;5051345;28;20228;-83
2023/08/04 02:17:59;;;;;;;5.60;2.63;;;;;;;14.36;100.00;97594.34;5051294;28;20204;-83
2023/08/04 02:20:26;;;;;;;3.20;1.90;;;;;;;14.41;100.00;97596.56;5050818;28;20290;-83
2023/08/04 02:22:52;;;;;;;2.00;1.80;;;;;;;14.54;100.00;97603.25;5051162;28;20235;-83
2023/08/04 02:25:19;;;;;;;1.43;1.33;;;;;;;14.46;100.00;97603.16;5051271;28;20228;-83
2023/08/04 02:27:45;;;;;;;2.93;1.40;;;;;;;14.26;100.00;97603.31;5051278;28;20212;-83
2023/08/04 02:30:13;;;;;;;4.30;1.60;;;;;;;14.16;100.00;97607.75;5050455;28;20219;-83
2023/08/04 02:32:40;;;;;;;2.03;1.47;;;;;;;14.09;100.00;97609.28;5051044;28;20200;-83
2023/08/04 02:35:07;;;;;;;4.03;1.80;;;;;;;14.04;100.00;97603.56;5051336;28;20255;-83
2023/08/04 02:37:34;;;;;;;2.67;1.63;;;;;;;14.00;100.00;97607.47;5051155;28;20220;-83
2023/08/04 02:40:00;;;;;;;1.70;1.20;;;;;;;13.99;100.00;97611.94;5050351;28;20208;-83
2023/08/04 02:42:27;;;;;;;2.47;1.40;;;;;;;13.97;100.00;97607.75;5050958;28;20700;-83
2023/08/04 02:44:55;;;;;;;3.23;1.73;;;;;;;13.96;100.00;97611.38;5051036;28;20456;-83
2023/08/04 02:47:23;;;;;;;2.13;1.40;;;;;;;14.01;100.00;97609.16;5050870;28;20261;-83
2023/08/04 02:49:49;;;;;;;1.43;1.30;;;;;;;14.00;100.00;97612.81;5050282;28;20211;-83
2023/08/04 02:52:16;;;;;;;2.40;1.47;;;;;;;14.00;100.00;97607.47;5051099;28;20230;-83
2023/08/04 02:54:42;;;;;;;3.77;1.50;;;;;;;14.01;100.00;97603.84;5050793;28;20212;-83
2023/08/04 02:57:09;;;;;;;5.13;1.70;;;;;;;14.12;100.00;97604.53;5050999;28;20211;-83
2023/08/04 02:59:36;;;;;;;1.83;1.47;;;;;;;14.09;100.00;97603.97;5051791;28;20215;-83
2023/08/04 03:02:03;;;;;;;2.33;1.50;;;;;;;14.08;100.00;97610.28;5055337;28;20216;-83
2023/08/04 03:04:30;;;;;;;2.53;1.47;;;;;;;14.11;100.00;97616.16;5055038;28;20236;-83
2023/08/04 03:06:57;;;;;;;2.73;1.43;;;;;;;14.18;100.00;97611.13;5054988;28;20696;-83
2023/08/04 03:09:23;;;;;;;1.97;1.50;;;;;;;14.24;100.00;97607.94;5054178;28;20214;-83
2023/08/04 03:11:50;;;;;;;1.80;1.20;;;;;;;14.33;100.00;97605.25;5054935;28;20215;-83
2023/08/04 03:14:16;;;;;;;2.00;1.30;;;;;;;14.40;100.00;97606.38;5054683;28;20211;-83
2023/08/04 03:16:43;;;;;;;1.53;1.43;;;;;;;14.43;100.00;97616.72;5054671;28;20247;-83
2023/08/04 03:19:09;;;;;;;1.90;1.47;;;;;;;14.48;100.00;97614.47;5053968;28;20681;-83
2023/08/04 03:21:37;;;;;;;1.43;1.20;;;;;;;14.55;100.00;97610.25;5054887;28;20215;-83
2023/08/04 03:24:04;;;;;;;5.27;1.37;;;;;;;14.62;100.00;97613.19;5054676;28;20245;-83
2023/08/04 03:26:30;;;;;;;1.70;1.30;;;;;;;14.70;100.00;97613.31;5054593;28;20231;-83
2023/08/04 03:28:57;;;;;;;1.23;1.10;;;;;;;14.75;100.00;97613.72;5054407;28;20216;-83
2023/08/04 03:31:23;;;;;;;2.90;1.33;;;;;;;14.80;100.00;97619.44;5054183;28;20204;-83
2023/08/04 03:33:50;;;;;;;2.47;1.40;;;;;;;14.86;100.00;97616.22;5054795;28;20215;-83
2023/08/04 03:36:16;;;;;;;2.67;1.60;;;;;;;14.88;100.00;97623.06;5054517;28;20228;-83
2023/08/04 03:38:44;;;;;;;2.90;1.53;;;;;;;14.93;100.00;97615.50;5054587;28;20658;-83
2023/08/04 03:41:10;;;;;;;2.00;1.13;;;;;;;14.97;100.00;97616.03;5053761;28;20208;-83
2023/08/04 03:43:37;;;;;;;1.57;1.20;;;;;;;15.00;100.00;97607.75;5054416;28;20228;-83
2023/08/04 03:46:03;;;;;;;2.50;1.43;;;;;;;15.08;100.00;97610.50;5054687;28;20230;-83
2023/08/04 03:48:30;;;;;;;1.50;1.40;;;;;;;15.05;100.00;97609.00;5054739;28;20204;-83
2023/08/04 03:50:56;;;;;;;2.73;1.20;;;;;;;14.92;100.00;97612.97;5053671;28;20216;-83
2023/08/04 03:53:23;;;;;;;3.57;1.40;;;;;;;14.88;100.00;97608.91;5054460;28;20207;-83
2023/08/04 03:55:51;;;;;;;1.57;1.23;;;;;;;14.82;100.00;97617.47;5053997;28;20726;-83
2023/08/04 03:58:18;;;;;;;1.40;1.30;;;;;;;14.80;100.00;97614.13;5054513;28;20211;-83
2023/08/04 04:00:44;;;;;;;1.87;1.50;;;;;;;14.80;100.00;97614.13;5053490;28;20230;-83
2023/08/04 04:03:11;;;;;;;2.27;1.50;;;;;;;14.81;100.00;97613.13;5054054;28;20358;-83
2023/08/04 04:05:38;;;;;;;3.30;1.27;;;;;;;14.78;100.00;97613.44;5053858;28;20234;-83
2023/08/04 04:08:05;;;;;;;1.57;1.40;;;;;;;14.68;100.00;97621.44;5053944;28;20207;-83
2023/08/04 04:10:31;;;;;;;2.57;1.40;;;;;;;14.55;100.00;97614.75;5052861;28;20227;-83
2023/08/04 04:12:59;;;;;;;1.50;1.40;;;;;;;14.45;100.00;97609.44;5054139;28;20212;-83
2023/08/04 04:15:25;;;;;;;2.40;1.43;;;;;;;14.50;100.00;97620.50;5053811;28;20239;-83
2023/08/04 04:17:52;;;;;;;4.70;1.73;;;;;;;14.50;100.00;97617.00;5053826;28;20215;-83
2023/08/04 04:20:18;;;;;;;1.73;1.40;;;;;;;14.53;100.00;97616.69;5053114;28;20223;-82
2023/08/04 04:22:45;;;;;;;2.27;1.50;;;;;;;14.57;100.00;97618.94;5053554;28;20214;-83
2023/08/04 04:25:11;;;;;;;2.33;1.67;;;;;;;14.59;100.00;97611.66;5053603;28;20278;-83
2023/08/04 04:27:38;;;;;;;1.40;1.30;;;;;;;14.56;100.00;97621.75;5053812;28;20208;-83
2023/08/04 04:30:07;;;;;;;2.20;1.80;;;;;;;14.56;100.00;97627.06;5052902;28;20208;-83
2023/08/04 04:32:33;;;;;;;2.07;1.43;;;;;;;14.63;100.00;97628.16;5053475;28;20208;-83
2023/08/04 04:35:00;;;;;;;1.53;1.43;;;;;;;14.70;100.00;97631.91;5053263;28;20322;-83
2023/08/04 04:37:26;;;;;;;2.00;1.43;;;;;;;14.82;100.00;97630.78;5053186;28;20208;-83
2023/08/04 04:39:53;;;;;;;2.53;1.63;;;;;;;14.90;100.00;97628.25;5052783;28;20234;-83
2023/08/04 04:42:19;;;;;;;1.53;1.30;;;;;;;15.01;100.00;97623.56;5053418;28;20218;-83
2023/08/04 04:44:46;;;;;;;1.50;1.30;;;;;;;15.13;100.00;97627.72;5053222;28;20237;-83
2023/08/04 04:47:14;;;;;;;1.40;1.30;;;;;;;15.20;100.00;97634.16;5053255;28;20208;-83
2023/08/04 04:49:41;;;;;;;4.00;1.50;;;;;;;15.31;100.00;97633.09;5052441;28;20305;-83
2023/08/04 04:52:10;;;;;;;1.70;1.17;;;;;;;15.31;100.00;97643.75;5053440;28;20215;-83
2023/08/04 04:54:38;;;;;;;1.50;1.40;;;;;;;15.35;100.00;97642.53;5053100;28;20200;-83
2023/08/04 04:57:06;;;;;;;2.70;1.40;;;;;;;15.39;100.00;97643.91;5053309;28;20212;-83
2023/08/04 04:59:32;;;;;;;1.20;1.10;;;;;;;15.40;100.00;97638.41;5052379;28;20208;-83
2023/08/04 05:01:59;;;;;;;1.63;1.33;;;;;;;15.42;100.00;97638.28;5053030;28;20583;-83
2023/08/04 05:04:26;;;;;;;3.10;1.40;;;;;;;15.42;100.00;97646.28;5052871;28;20239;-82
2023/08/04 05:06:53;;;;;;;3.10;1.30;;;;;;;15.46;100.00;97642.34;5052979;28;20213;-83
2023/08/04 05:09:19;;;;;;;3.50;1.13;;;;;;;15.46;100.00;97640.50;5052062;28;20216;-83
2023/08/04 05:11:46;;;;;;;1.67;1.30;;;;;;;15.49;100.00;97645.53;5052956;28;20204;-83
2023/08/04 05:14:12;;;;;;;3.07;1.20;;;;;;;15.54;100.00;97645.09;5052789;28;20201;-83
2023/08/04 05:16:40;;;;;;;2.40;1.07;;;;;;;15.57;100.00;97647.47;5052448;28;20238;-83
2023/08/04 05:19:07;;;;;;;1.60;1.50;;;;;;;15.63;100.00;97653.03;5052207;28;20208;-83
2023/08/04 05:21:35;;;;;;;1.57;1.10;;;;;;;15.68;100.00;97653.44;5051688;28;20670;-83
2023/08/04 05:24:01;;;;;;;1.57;1.30;;;;;;;15.68;100.00;97655.25;5052575;28;20224;-83
2023/08/04 05:26:27;;;;;;;2.60;1.27;;;;;;;15.71;100.00;97652.28;5052816;28;20238;-83
2023/08/04 05:28:54;;;;;;;2.80;1.20;;;;;;;15.73;100.00;97659.16;5052500;28;20591;-83
2023/08/04 05:31:20;;;;;;;2.50;1.37;;;;;;;15.75;100.00;97656.31;5051937;28;20235;-83
2023/08/04 05:33:47;;;;;;;4.60;1.50;;;;;;;15.76;100.00;97660.69;5052192;28;20208;-83
2023/08/04 05:36:13;;;;;;;1.50;1.20;;;;;;;15.78;100.00;97658.69;5052406;28;20236;-83
2023/08/04 05:38:42;;;;;;;2.27;1.23;;;;;;;15.81;100.00;97666.38;5052320;28;20208;-83
2023/08/04 05:41:09;;;;;;;2.93;1.30;;;;;;;15.87;100.00;97676.44;5051318;28;20208;-83
2023/08/04 05:43:35;;;;;;;3.13;1.23;;;;;;;15.91;100.00;97672.50;5052184;28;20664;-83
2023/08/04 05:46:03;;;;;;;2.77;1.30;;;;;;;15.97;100.00;97669.22;5052123;28;20718;-83
2023/08/04 05:48:30;;;;;;;4.10;1.50;;;;;;;16.08;100.00;97670.69;5052075;28;20247;-82
2023/08/04 05:50:57;;;;;;;2.03;1.60;;;;;;;15.98;100.00;97659.25;5051530;28;20374;-83
2023/08/04 05:53:23;;;;;;;2.03;1.20;;;;;;;15.95;100.00;97663.22;5051904;28;20217;-83
2023/08/04 05:55:51;;;;;;;2.17;1.50;;;;;;;15.94;100.00;97666.88;5051785;28;20610;-82
2023/08/04 05:58:18;;;;;;;1.80;1.10;;;;;;;16.06;100.00;97671.00;5051770;28;20219;-83
2023/08/04 06:00:44;;;;;;;2.43;1.37;;;;;;;16.17;100.00;97664.47;5051125;28;20207;-82
2023/08/04 06:03:11;;;;;;;1.40;1.30;;;;;;;16.14;100.00;97662.09;5051712;28;20204;-82
2023/08/04 06:05:37;;;;;;;3.10;1.40;;;;;;;16.17;100.00;97664.47;5051715;28;20231;-81
2023/08/04 06:08:04;;;;;;;1.57;1.20;;;;;;;16.27;100.00;97665.22;5051826;28;20214;-77
2023/08/04 06:10:31;;;;;;;1.60;1.10;;;;;;;16.32;100.00;97662.94;5051212;28;20207;-77
2023/08/04 06:13:00;;;;;;;1.27;1.10;;;;;;;16.33;100.00;97667.28;5051727;28;20212;-78
2023/08/04 06:15:26;;;;;;;2.03;1.13;;;;;;;16.39;100.00;97669.38;5051686;28;20224;-78
2023/08/04 06:17:53;;;;;;;2.20;1.33;;;;;;;16.42;100.00;97671.75;5051646;28;20221;-78
2023/08/04 06:20:19;;;;;;;2.00;1.17;;;;;;;16.44;100.00;97667.06;5050943;28;20212;-77
2023/08/04 06:22:48;;;;;;;1.93;1.10;;;;;;;16.49;100.00;97672.78;5051457;28;20208;-77
2023/08/04 06:25:15;;;;;;;2.37;1.40;;;;;;;16.56;100.00;97670.34;5051372;28;20239;-77
2023/08/04 06:27:41;;;;;;;2.50;1.30;;;;;;;16.58;100.00;97669.19;5051649;28;20215;-77
2023/08/04 06:30:10;;;;;;;2.10;1.20;;;;;;;16.45;100.00;97673.25;5050638;28;20625;-78
2023/08/04 06:32:36;;;;;;;1.60;1.03;;;;;;;16.45;100.00;97674.09;5050924;28;20211;-78
2023/08/04 06:35:03;;;;;;;1.67;1.20;;;;;;;16.50;100.00;97674.47;5051373;28;20597;-78
2023/08/04 06:37:30;;;;;;;2.23;1.33;;;;;;;16.60;100.00;97683.25;5051058;28;20220;-78
2023/08/04 06:39:56;;;;;;;2.23;1.40;;;;;;;16.71;100.00;97685.63;5050447;28;20678;-78
2023/08/04 06:42:22;;;;;;;1.93;1.30;;;;;;;16.83;100.00;97688.91;5051240;28;20231;-79
2023/08/04 06:44:49;;;;;;;2.20;1.60;;;;;;;16.92;100.00;97683.47;5051517;28;20242;-81
2023/08/04 06:47:17;;;;;;;1.47;1.20;;;;;;;17.10;100.00;97681.59;5051303;28;20289;-79
2023/08/04 06:49:44;;;;;;;2.23;1.20;;;;;;;17.35;100.00;97678.09;5047227;28;20207;-79
2023/08/04 06:52:10;;;;;;;1.60;1.20;;;;;;;17.79;98.91;97668.94;5048913;28;20204;-79
2023/08/04 06:54:37;;;;;;;2.60;1.20;;;;;;;18.10;95.11;97670.03;5048695;28;20219;-79
2023/08/04 06:57:05;;;;;;;2.67;1.10;;;;;;;18.36;92.39;97662.75;5064354;22;20239;-74
2023/08/04 06:59:32;;;;;;;3.03;1.20;;;;;;;18.61;91.39;97669.84;5050279;28;20210;-74
2023/08/04 07:01:58;;;;;;;1.53;1.10;;;;;;;18.80;90.09;97666.81;5049415;28;20215;-73
2023/08/04 07:04:26;;;;;;;2.40;1.20;;;;;;;19.07;88.78;97668.31;5048331;28;20228;-74
2023/08/04 07:06:53;;;;;;;1.63;1.10;;;;;;;19.34;87.14;97666.09;5048490;28;20617;-74
2023/08/04 07:09:20;;;;;;;3.07;1.10;;;;;;;19.63;86.40;97660.97;5047691;28;20215;-76
2023/08/04 07:11:46;;;;;;;1.57;0.90;;;;;;;19.87;83.83;97658.19;5051082;28;20210;-76
2023/08/04 07:14:13;;;;;;;1.93;1.00;;;;;;;19.97;82.91;97658.81;5050941;28;20211;-74
2023/08/04 07:16:39;;;;;;;2.70;1.10;;;;;;;20.01;82.47;97659.28;5046471;28;20228;-75
2023/08/04 07:19:06;;;;;;;2.07;1.03;;;;;;;19.91;82.99;97664.88;5045407;28;20215;-73
2023/08/04 07:21:34;;;;;;;1.00;0.90;;;;;;;19.80;82.81;97651.03;5047447;28;20295;-75
2023/08/04 07:24:00;;;;;;;1.00;0.87;;;;;;;19.67;82.47;97656.94;5048847;28;20242;-74
2023/08/04 07:26:27;;;;;;;2.17;1.00;;;;;;;19.70;80.89;97656.56;5048711;28;20232;-74
2023/08/04 07:28:54;;;;;;;1.83;1.03;;;;;;;19.73;80.09;97655.38;5047633;28;20439;-74
2023/08/04 07:31:21;;;;;;;1.93;0.87;;;;;;;19.79;81.39;97663.59;5047374;28;20508;-73
2023/08/04 07:33:47;;;;;;;2.17;1.00;;;;;;;19.87;80.49;97671.59;5048040;28;20207;-75
2023/08/04 07:36:14;;;;;;;1.77;0.97;;;;;;;19.90;80.49;97673.94;5047914;28;20236;-75
2023/08/04 07:38:42;;;;;;;0.90;0.90;;;;;;;20.01;80.20;97675.38;5050761;28;20208;-75
2023/08/04 07:41:09;;;;;;;1.70;1.10;;;;;;;20.08;77.73;97666.50;5049912;28;20302;-75
2023/08/04 07:43:35;;;;;;;1.13;0.90;;;;;;;20.14;76.29;97662.25;5050729;28;20212;-77
2023/08/04 07:46:02;;;;;;;1.57;0.90;;;;;;;20.12;75.40;97665.13;5052684;28;20305;-79
2023/08/04 07:48:29;;;;;;;1.80;0.90;;;;;;;20.04;73.38;97665.13;5054710;28;20218;-82
2023/08/04 07:50:55;;;;;;;1.97;0.90;;;;;;;20.03;74.38;97666.16;5053739;28;20214;-79
2023/08/04 07:53:22;;;;;;;0.90;0.70;;;;;;;20.01;75.09;97670.03;5054207;28;20667;-80
2023/08/04 07:55:57;;;;;;;1.77;0.80;;;;;;;19.95;75.37;97670.72;5053747;28;20240;-79
2023/08/04 07:58:24;;;;;;;1.43;0.93;;;;;;;19.93;76.04;97678.94;5054284;28;20218;-82
2023/08/04 08:00:50;;;;;;;1.30;0.87;;;;;;;20.00;75.76;97677.22;5052698;28;20463;-79
2023/08/04 08:03:17;;;;;;;1.73;1.07;;;;;;;19.96;75.90;97681.28;5053962;28;20299;-80
2023/08/04 08:05:44;;;;;;;0.90;0.80;;;;;;;20.00;76.48;97693.31;5053950;28;20250;-79
2023/08/04 08:08:10;;;;;;;1.40;0.83;;;;;;;20.03;76.57;97686.75;5054034;28;20242;-77
2023/08/04 08:10:37;;;;;;;1.77;0.80;;;;;;;20.10;73.83;97679.72;5052941;28;20222;-77
2023/08/04 08:13:05;;;;;;;1.70;0.90;;;;;;;20.09;72.87;97678.91;5054092;28;20212;-80
2023/08/04 08:15:33;;;;;;;0.93;0.80;;;;;;;20.11;72.03;97676.88;5053848;28;20228;-80
2023/08/04 08:17:59;;;;;;;2.03;1.17;;;;;;;20.11;73.01;97674.19;5053536;28;20439;-80
2023/08/04 08:20:26;;;;;;;1.30;0.90;;;;;;;20.23;73.92;97678.13;5053243;28;20214;-79
2023/08/04 08:22:52;;;;;;;2.37;0.90;;;;;;;20.29;72.06;97658.66;5053690;28;20289;-78
2023/08/04 08:25:19;;;;;;;1.23;0.90;;;;;;;20.34;73.15;97660.78;5053806;28;20593;-80
2023/08/04 08:27:45;;;;;;;3.07;0.90;;;;;;;20.40;71.49;97655.56;5053078;28;20212;-87
2023/08/04 08:30:13;;;;;;;2.70;1.10;;;;;;;20.48;70.10;97643.94;5050498;28;20208;-85
2023/08/04 08:32:40;;;;;;;1.70;1.00;;;;;;;20.56;71.13;97650.09;5051145;28;20227;-85
2023/08/04 08:35:07;;;;;;;1.27;1.00;;;;;;;20.64;71.04;97651.84;5050920;28;20850;-86
2023/08/04 08:37:34;;;;;;;1.00;0.83;;;;;;;20.83;71.31;97649.50;5052231;28;20603;-80
2023/08/04 08:40:01;;;;;;;1.17;0.90;;;;;;;20.94;69.69;97648.25;5053131;28;20218;-79
2023/08/04 08:42:27;;;;;;;2.13;0.90;;;;;;;20.88;67.16;97633.72;5052299;28;20594;-79
2023/08/04 08:44:55;;;;;;;2.00;1.13;;;;;;;20.80;66.44;97630.22;5050820;28;20236;-80
2023/08/04 08:47:24;;;;;;;1.30;0.70;;;;;;;20.74;67.77;97639.88;5050566;28;20236;-79
2023/08/04 08:49:56;;;;;;;3.13;1.10;;;;;;;20.74;68.08;97639.00;5049829;28;20205;-80
2023/08/04 08:52:26;;;;;;;1.53;1.27;;;;;;;20.55;69.70;97652.94;5053249;28;20212;-79
2023/08/04 08:54:54;;;;;;;3.00;1.10;;;;;;;20.35;70.71;97662.47;5053187;28;20211;-78
2023/08/04 08:57:21;;;;;;;3.03;1.20;;;;;;;20.28;73.03;97673.09;5049149;28;20727;-79
2023/08/04 08:59:49;;;;;;;2.47;1.20;;;;;;;20.28;72.97;97686.50;5049124;28;20242;-79
2023/08/04 09:02:16;;;;;;;2.77;1.23;;;;;;;20.17;75.17;97697.63;5049585;28;20388;-77
2023/08/04 09:04:44;;;;;;;1.77;1.13;;;;;;;20.35;76.92;97711.63;5051727;28;20237;-80
2023/08/04 09:07:11;;;;;;;1.63;1.30;;;;;;;20.53;73.23;97687.16;5052600;28;20315;-79
2023/08/04 09:09:38;;;;;;;1.63;1.10;;;;;;;20.64;72.59;97682.22;5052395;28;20211;-79
2023/08/04 09:12:07;;;;;;;1.37;1.00;;;;;;;20.69;72.07;97674.47;5050558;28;20210;-80
2023/08/04 09:14:47;;;;;;;1.67;0.90;;;;;;;20.84;72.21;97678.03;5051371;28;20215;-79
2023/08/04 09:17:29;;;;;;;2.00;1.03;;;;;;;21.14;73.27;97682.50;5049870;28;20223;-79
2023/08/04 09:19:57;;;;;;;2.60;1.27;;;;;;;21.50;70.48;97666.50;5049508;28;20204;-79
2023/08/04 09:22:24;;;;;;;2.27;0.83;;;;;;;21.76;69.72;97662.34;5049655;28;20568;-80
2023/08/04 09:24:56;;;;;;;1.83;1.13;;;;;;;22.13;67.86;97656.81;5052423;28;20231;-80
2023/08/04 09:27:31;;;;;;;1.40;0.90;;;;;;;22.17;64.25;97633.88;5052552;28;20577;-81
2023/08/04 09:29:59;;;;;;;1.67;0.97;;;;;;;22.19;66.84;97645.28;5052084;28;20203;-83
2023/08/04 09:32:26;;;;;;;1.43;1.10;;;;;;;22.19;64.77;97641.78;5052705;28;20618;-79
2023/08/04 09:35:03;;;;;;;0.90;0.87;;;;;;;21.90;64.61;97640.00;5052681;28;20762;-80
2023/08/04 09:37:32;;;;;;;1.70;1.07;;;;;;;21.67;65.63;97641.97;5052582;28;20212;-78
2023/08/04 09:39:58;;;;;;;9.33;1.33;;;;;;;21.59;66.40;97650.06;5051468;28;20216;-77
2023/08/04 09:42:25;;;;;;;1.43;0.90;;;;;;;21.64;66.39;97647.66;5052374;28;20208;-80
2023/08/04 09:44:52;;;;;;;1.97;0.80;;;;;;;21.67;65.18;97633.91;5052067;28;20305;-80
2023/08/04 09:47:22;;;;;;;1.63;0.77;;;;;;;21.90;65.65;97642.69;5052853;28;20723;-78
2023/08/04 09:49:48;;;;;;;1.13;0.77;;;;;;;22.08;63.42;97634.19;5052701;28;20231;-80
2023/08/04 09:52:21;;;;;;;2.40;0.90;;;;;;;22.11;64.65;97645.41;5052862;28;20204;-81
2023/08/04 09:54:48;;;;;;;2.77;0.93;;;;;;;22.15;66.78;97652.09;5052455;28;20204;-84
2023/08/04 09:57:15;;;;;;;2.33;0.93;;;;;;;22.20;64.16;97633.50;5052087;28;20619;-81
2023/08/04 09:59:41;;;;;;;2.03;0.70;;;;;;;21.92;64.35;97632.56;5051527;28;20208;-81
2023/08/04 10:02:09;;;;;;;1.70;1.20;;;;;;;21.63;65.70;97627.19;5052175;28;20213;-80
2023/08/04 10:04:37;;;;;;;1.07;0.70;;;;;;;21.16;67.01;97633.94;5051857;28;20214;-78
2023/08/04 10:07:04;;;;;;;1.67;0.80;;;;;;;21.12;67.63;97643.38;5051923;28;20235;-79
2023/08/04 10:09:33;;;;;;;3.43;1.10;;;;;;;21.02;69.32;97646.34;5051313;28;20226;-79
2023/08/04 10:12:00;;;;;;;2.80;1.20;;;;;;;21.08;69.44;97645.59;5052157;28;20204;-79
2023/08/04 10:14:27;;;;;;;1.80;0.97;;;;;;;21.10;69.26;97640.88;5051744;28;20215;-77
2023/08/04 10:16:57;;;;;;;2.30;0.90;;;;;;;21.18;69.12;97646.19;5051905;28;20607;-77
2023/08/04 10:19:23;;;;;;;1.17;0.87;;;;;;;21.23;67.11;97632.19;5050873;28;20669;-79
2023/08/04 10:21:50;;;;;;;1.00;0.80;;;;;;;21.12;68.19;97640.69;5049293;28;20720;-77
2023/08/04 10:24:20;;;;;;;1.83;0.97;;;;;;;21.24;68.51;97653.53;5052051;28;20204;-78
2023/08/04 10:26:50;;;;;;;1.63;0.70;;;;;;;21.25;68.11;97651.66;5049060;28;20781;-76
2023/08/04 10:29:18;;;;;;;1.67;0.80;;;;;;;21.10;68.82;97648.94;5048573;28;20218;-78
2023/08/04 10:31:51;;;;;;;1.30;0.80;;;;;;;21.01;68.64;97651.88;5049124;28;20222;-77
2023/08/04 10:34:25;;;;;;;1.00;0.77;;;;;;;21.04;69.23;97646.16;5055337;28;20211;-77
2023/08/04 10:36:58;;;;;;;1.43;0.83;;;;;;;21.06;70.02;97657.56;5054287;28;20227;-76
2023/08/04 10:39:31;;;;;;;1.37;0.80;;;;;;;21.17;70.40;97660.66;5053755;28;20201;-76
2023/08/04 10:42:00;;;;;;;1.10;0.80;;;;;;;21.25;70.37;97663.25;5056099;28;20215;-75
2023/08/04 10:44:30;;;;;;;2.27;0.90;;;;;;;21.27;68.50;97645.06;5052145;28;20214;-76
2023/08/04 10:47:01;;;;;;;1.20;0.80;;;;;;;21.47;66.90;97638.13;5051156;28;20660;-76
2023/08/04 10:49:28;;;;;;;2.10;0.93;;;;;;;21.51;67.90;97652.06;5049399;28;20435;-79
2023/08/04 10:51:55;;;;;;;1.33;0.90;;;;;;;21.60;67.36;97657.16;5051017;28;20208;-77
2023/08/04 10:54:22;;;;;;;2.73;0.90;;;;;;;21.71;66.92;97661.25;5051547;28;20207;-76
2023/08/04 10:56:48;;;;;;;1.57;0.90;;;;;;;21.80;67.34;97665.50;5051129;28;20238;-76
2023/08/04 10:59:16;;;;;;;2.40;0.80;;;;;;;21.84;67.76;97672.19;5050303;28;20214;-76
2023/08/04 11:01:43;;;;;;;2.03;0.90;;;;;;;21.68;68.25;97675.06;5051134;28;20216;-76
2023/08/04 11:04:09;;;;;;;2.13;1.10;;;;;;;21.79;68.80;97678.13;5051268;28;20226;-76
2023/08/04 11:06:36;;;;;;;0.83;0.83;;;;;;;21.93;69.53;97688.03;5051087;28;20615;-76
2023/08/04 11:09:03;;;;;;;0.90;0.70;;;;;;;21.86;68.09;97673.69;5050937;28;20207;-78
2023/08/04 11:11:31;;;;;;;1.33;0.77;;;;;;;21.67;69.11;97687.69;5050660;28;20215;-77
2023/08/04 11:13:58;;;;;;;1.43;0.87;;;;;;;21.46;69.24;97689.41;5051302;28;20204;-77
2023/08/04 11:16:26;;;;;;;1.17;1.00;;;;;;;21.29;70.43;97691.44;5051072;28;20227;-77
2023/08/04 11:18:53;;;;;;;2.23;0.93;;;;;;;21.18;71.74;97702.63;5051180;28;20212;-77
2023/08/04 11:21:19;;;;;;;2.53;0.90;;;;;;;21.12;71.98;97706.03;5053333;28;20352;-77
2023/08/04 11:23:46;;;;;;;2.27;0.87;;;;;;;21.10;73.69;97713.44;5055181;28;20220;-77
2023/08/04 11:26:12;;;;;;;1.57;0.90;;;;;;;21.14;75.40;97733.56;5054638;28;20259;-76
2023/08/04 11:28:39;;;;;;;1.37;0.70;;;;;;;21.11;76.55;97736.63;5054884;28;20298;-76